createdAt,value
2023-04-28T00:00:32.225Z,97689.21
2023-04-28T00:03:18.716Z,97688.39
2023-04-28T00:05:48.501Z,97687.64
2023-04-28T00:08:17.973Z,97690.61
2023-04-28T00:10:48.848Z,97693.45
2023-04-28T00:13:18.722Z,97695.65
2023-04-28T00:15:50.384Z,97695.25
2023-04-28T00:18:21.678Z,97696.88
2023-04-28T00:20:53.230Z,97696.45
2023-04-28T00:23:23.665Z,97700.51
2023-04-28T00:25:55.355Z,97702.59
2023-04-28T00:31:00.281Z,97698.73
2023-04-28T00:33:30.006Z,97700.48
2023-04-28T00:36:02.199Z,97701.72
2023-04-28T00:38:32.581Z,97705.36
2023-04-28T00:41:03.031Z,97707.97
2023-04-28T00:43:34.120Z,97707.79
2023-04-28T00:46:08.478Z,97707.27
2023-04-28T00:48:40.155Z,97711.04
2023-04-28T00:51:11.923Z,97715.01
2023-04-28T00:53:42.200Z,97715.73
2023-04-28T00:56:13.919Z,97714.85
2023-04-28T00:58:44.451Z,97717.61
2023-04-28T01:01:15.418Z,97716.63
2023-04-28T01:03:48.312Z,97714.45
2023-04-28T01:06:21.751Z,97718.14
2023-04-28T01:08:54.435Z,97718.77
2023-04-28T01:11:25.579Z,97718.67
2023-04-28T01:14:17.681Z,97716.67
2023-04-28T01:16:50.384Z,97718.09
2023-04-28T01:19:24.563Z,97718.13
2023-04-28T01:21:55.222Z,97720.03
2023-04-28T01:24:27.446Z,97720.52
2023-04-28T01:26:59.315Z,97721.39
2023-04-28T01:29:30.812Z,97723.82
2023-04-28T01:32:00.240Z,97720.35
2023-04-28T01:34:30.369Z,97718.62
2023-04-28T01:36:59.381Z,97717.09
2023-04-28T01:39:29.480Z,97719.33
2023-04-28T01:41:58.944Z,97718.12
2023-04-28T01:44:29.728Z,97721.39
2023-04-28T01:47:00.970Z,97721.10
2023-04-28T01:49:31.983Z,97722.39
2023-04-28T01:52:03.598Z,97723.72
2023-04-28T01:54:34.627Z,97724.83
2023-04-28T01:57:05.272Z,97725.40
2023-04-28T01:59:35.077Z,97728.23
2023-04-28T02:02:05.524Z,97728.95
2023-04-28T02:04:35.415Z,97731.35
2023-04-28T02:07:05.422Z,97731.02
2023-04-28T02:09:35.641Z,97729.05
2023-04-28T02:12:05.085Z,97735.62
2023-04-28T02:14:36.388Z,97737.63
2023-04-28T02:17:06.831Z,97742.15
2023-04-28T02:19:35.904Z,97738.79
2023-04-28T02:22:06.695Z,97739.91
2023-04-28T02:24:38.592Z,97741.94
2023-04-28T02:27:08.968Z,97739.13
2023-04-28T02:29:39.607Z,97741.16
2023-04-28T02:32:09.924Z,97742.27
2023-04-28T02:34:39.720Z,97741.36
2023-04-28T02:37:11.084Z,97744.97
2023-04-28T02:39:41.167Z,97744.39
2023-04-28T02:42:12.755Z,97746.02
2023-04-28T02:44:43.695Z,97749.02
2023-04-28T02:47:13.170Z,97750.98
2023-04-28T02:49:43.857Z,97753.09
2023-04-28T02:52:14.562Z,97755.23
2023-04-28T02:54:44.283Z,97755.73
2023-04-28T02:57:14.303Z,97755.70
2023-04-28T02:59:44.023Z,97760.46
2023-04-28T03:02:13.481Z,97766.77
2023-04-28T03:04:43.527Z,97767.87
2023-04-28T03:07:13.707Z,97767.30
2023-04-28T03:09:42.703Z,97772.55
2023-04-28T03:12:13.094Z,97777.67
2023-04-28T03:14:42.119Z,97772.67
2023-04-28T03:17:15.767Z,97774.92
2023-04-28T03:19:45.736Z,97779.23
2023-04-28T03:22:16.088Z,97781.14
2023-04-28T03:24:46.746Z,97783.76
2023-04-28T03:27:17.659Z,97789.64
2023-04-28T03:29:47.233Z,97790.05
2023-04-28T03:32:18.744Z,97787.73
2023-04-28T03:34:48.114Z,97790.54
2023-04-28T03:37:18.879Z,97786.75
2023-04-28T03:39:49.278Z,97786.27
2023-04-28T03:42:18.849Z,97786.83
2023-04-28T03:45:09.441Z,97790.52
2023-04-28T03:47:39.287Z,97790.40
2023-04-28T03:50:09.984Z,97796.88
2023-04-28T03:52:39.491Z,97801.60
2023-04-28T03:55:09.508Z,97804.23
2023-04-28T03:57:39.565Z,97809.27
2023-04-28T04:00:09.444Z,97810.33
2023-04-28T04:02:46.193Z,97810.11
2023-04-28T04:05:16.483Z,97812.66
2023-04-28T04:07:46.263Z,97818.05
2023-04-28T04:10:15.663Z,97813.31
2023-04-28T04:12:46.022Z,97813.06
2023-04-28T04:15:15.840Z,97813.80
2023-04-28T04:17:46.059Z,97822.29
2023-04-28T04:20:16.752Z,97826.80
2023-04-28T04:22:46.670Z,97822.84
2023-04-28T04:25:17.561Z,97824.45
2023-04-28T04:27:46.385Z,97823.30
2023-04-28T04:30:16.029Z,97824.60
2023-04-28T04:32:45.083Z,97830.41
2023-04-28T04:35:15.909Z,97831.42
2023-04-28T04:37:45.027Z,97833.36
2023-04-28T04:40:14.311Z,97832.73
2023-04-28T04:42:47.532Z,97838.10
2023-04-28T04:45:21.760Z,97842.05
2023-04-28T04:47:51.069Z,97843.77
2023-04-28T04:50:21.023Z,97847.70
2023-04-28T04:52:50.457Z,97845.20
2023-04-28T04:55:20.272Z,97845.14
2023-04-28T04:57:49.857Z,97844.05
2023-04-28T05:00:38.739Z,97842.16
2023-04-28T05:03:08.538Z,97844.85
2023-04-28T05:05:38.346Z,97844.48
2023-04-28T05:08:13.061Z,97844.33
2023-04-28T05:10:42.899Z,97844.73
2023-04-28T05:13:12.291Z,97846.44
2023-04-28T05:15:41.279Z,97850.43
2023-04-28T05:18:25.019Z,97849.34
2023-04-28T05:20:54.001Z,97848.92
2023-04-28T05:23:22.793Z,97850.27
2023-04-28T05:25:51.874Z,97851.00
2023-04-28T05:28:22.439Z,97853.79
2023-04-28T05:30:52.531Z,97850.02
2023-04-28T05:33:21.961Z,97856.93
2023-04-28T05:35:51.244Z,97855.83
2023-04-28T05:38:22.140Z,97855.46
2023-04-28T05:40:52.916Z,97859.02
2023-04-28T05:43:22.767Z,97858.26
2023-04-28T05:45:52.684Z,97860.03
2023-04-28T05:48:21.744Z,97861.58
2023-04-28T05:50:51.234Z,97865.64
2023-04-28T05:53:20.762Z,97864.09
2023-04-28T05:55:50.053Z,97869.66
2023-04-28T05:58:19.337Z,97873.48
2023-04-28T06:00:47.924Z,97873.43
2023-04-28T06:03:19.440Z,97870.68
2023-04-28T06:05:49.895Z,97868.04
2023-04-28T06:08:19.709Z,97865.24
2023-04-28T06:10:48.724Z,97867.17
2023-04-28T06:13:17.912Z,97869.23
2023-04-28T06:15:46.706Z,97868.37
2023-04-28T06:18:16.772Z,97865.57
2023-04-28T06:20:45.922Z,97867.92
2023-04-28T06:23:15.112Z,97861.69
2023-04-28T06:25:48.601Z,97862.05
2023-04-28T06:28:20.052Z,97863.13
2023-04-28T06:30:49.670Z,97860.17
2023-04-28T06:33:18.570Z,97868.46
2023-04-28T06:35:48.155Z,97874.83
2023-04-28T06:38:17.763Z,97870.64
2023-04-28T06:40:49.628Z,97869.07
2023-04-28T06:43:21.173Z,97868.92
2023-04-28T06:46:03.558Z,97864.53
2023-04-28T06:48:32.846Z,97867.25
2023-04-28T06:51:01.586Z,97873.30
2023-04-28T06:53:31.071Z,97872.87
2023-04-28T06:56:03.149Z,97870.17
2023-04-28T06:58:32.742Z,97870.67
2023-04-28T07:01:01.764Z,97866.30
2023-04-28T07:03:31.293Z,97862.80
2023-04-28T07:06:00.567Z,97860.77
2023-04-28T07:08:31.091Z,97862.40
2023-04-28T07:11:00.167Z,97861.48
2023-04-28T07:13:34.187Z,97862.34
2023-04-28T07:16:03.239Z,97863.25
2023-04-28T07:18:32.698Z,97863.77
2023-04-28T07:21:04.802Z,97866.55
2023-04-28T07:23:35.264Z,97873.85
2023-04-28T07:26:04.057Z,97865.27
2023-04-28T07:28:32.864Z,97866.90
2023-04-28T07:31:01.946Z,97866.33
2023-04-28T07:33:31.341Z,97863.04
2023-04-28T07:36:00.433Z,97860.65
2023-04-28T07:38:30.250Z,97861.63
2023-04-28T07:40:59.344Z,97856.57
2023-04-28T07:43:28.537Z,97857.36
2023-04-28T07:45:59.406Z,97857.85
2023-04-28T07:48:29.736Z,97855.93
2023-04-28T07:50:58.479Z,97857.00
2023-04-28T07:53:27.719Z,97858.73
2023-04-28T07:55:56.592Z,97857.84
2023-04-28T07:58:26.185Z,97855.02
2023-04-28T08:00:54.971Z,97854.52
2023-04-28T08:03:24.690Z,97850.60
2023-04-28T08:05:53.839Z,97850.90
2023-04-28T08:08:23.185Z,97851.06
2023-04-28T08:10:52.677Z,97853.06
2023-04-28T08:13:21.564Z,97851.77
2023-04-28T08:15:53.185Z,97856.59
2023-04-28T08:18:26.020Z,97853.77
2023-04-28T08:20:55.693Z,97858.48
2023-04-28T08:23:28.499Z,97855.77
2023-04-28T08:25:57.406Z,97857.04
2023-04-28T08:28:26.886Z,97853.40
2023-04-28T08:30:55.848Z,97854.28
2023-04-28T08:33:25.299Z,97854.77
2023-04-28T08:35:55.732Z,97856.87
2023-04-28T08:38:25.733Z,97859.81
2023-04-28T08:40:54.617Z,97853.85
2023-04-28T08:43:24.635Z,97851.58
2023-04-28T08:45:53.524Z,97848.36
2023-04-28T08:48:23.336Z,97843.22
2023-04-28T08:50:55.040Z,97847.20
2023-04-28T08:53:27.253Z,97848.41
2023-04-28T08:55:58.002Z,97847.83
2023-04-28T08:58:28.845Z,97846.19
2023-04-28T09:00:57.751Z,97849.91
2023-04-28T09:03:27.691Z,97850.34
2023-04-28T09:05:56.938Z,97855.63
2023-04-28T09:08:25.711Z,97856.42
2023-04-28T09:11:14.689Z,97853.98
2023-04-28T09:13:43.855Z,97849.92
2023-04-28T09:16:12.753Z,97843.15
2023-04-28T09:18:57.232Z,97842.70
2023-04-28T09:21:26.186Z,97839.09
2023-04-28T09:23:55.033Z,97839.92
2023-04-28T09:26:24.920Z,97835.27
2023-04-28T09:29:11.753Z,97828.60
2023-04-28T09:31:41.153Z,97828.88
2023-04-28T09:34:15.635Z,97824.70
2023-04-28T09:36:44.764Z,97822.27
2023-04-28T09:39:13.975Z,97824.48
2023-04-28T09:41:45.642Z,97824.48
2023-04-28T09:44:26.856Z,97821.88
2023-04-28T09:46:56.388Z,97822.89
2023-04-28T09:49:24.978Z,97823.50
2023-04-28T09:51:53.798Z,97821.37
2023-04-28T09:54:24.103Z,97814.81
2023-04-28T09:56:54.007Z,97813.00
2023-04-28T09:59:23.904Z,97810.34
2023-04-28T10:01:53.326Z,97808.67
2023-04-28T10:04:22.769Z,97803.09
2023-04-28T10:06:52.026Z,97798.29
2023-04-28T10:09:26.956Z,97796.13
2023-04-28T10:11:55.942Z,97792.18
2023-04-28T10:14:27.662Z,97786.63
2023-04-28T10:16:59.394Z,97785.55
2023-04-28T10:19:28.256Z,97787.42
2023-04-28T10:22:22.962Z,97779.39
2023-04-28T10:25:14.487Z,97773.79
2023-04-28T10:27:45.639Z,97766.02
2023-04-28T10:33:12.358Z,97773.44
2023-04-28T10:35:44.004Z,97769.63
2023-04-28T10:38:23.804Z,97767.10
2023-04-28T10:40:54.595Z,97755.73
2023-04-28T10:43:27.663Z,97755.02
2023-04-28T10:46:02.717Z,97752.97
2023-04-28T10:48:34.808Z,97745.12
2023-04-28T10:51:04.245Z,97743.42
2023-04-28T10:53:54.906Z,97738.52
2023-04-28T10:56:27.832Z,97731.52
2023-04-28T10:59:00.475Z,97732.51
2023-04-28T11:01:31.279Z,97737.39
2023-04-28T11:04:03.148Z,97737.02
2023-04-28T11:06:37.030Z,97734.70
2023-04-28T11:09:15.385Z,97730.55
2023-04-28T11:12:08.316Z,97727.92
2023-04-28T11:14:43.336Z,97723.78
2023-04-28T11:17:17.577Z,97724.14
2023-04-28T11:19:48.955Z,97720.21
2023-04-28T11:22:23.912Z,97714.29
2023-04-28T11:25:00.019Z,97718.61
2023-04-28T11:27:33.711Z,97714.54
2023-04-28T11:30:03.146Z,97713.77
2023-04-28T11:32:36.900Z,97709.67
2023-04-28T11:35:09.928Z,97712.59
2023-04-28T11:37:39.421Z,97713.23
2023-04-28T11:40:12.397Z,97709.48
2023-04-28T11:42:50.203Z,97703.02
2023-04-28T11:45:19.203Z,97701.64
2023-04-28T11:47:48.148Z,97705.80
2023-04-28T11:50:18.108Z,97714.70
2023-04-28T11:52:53.204Z,97712.77
2023-04-28T11:55:23.159Z,97702.74
2023-04-28T11:58:18.365Z,97703.46
2023-04-28T12:01:06.613Z,97700.54
2023-04-28T12:03:48.593Z,97696.13
2023-04-28T12:06:19.254Z,97693.02
2023-04-28T12:08:48.126Z,97693.42
2023-04-28T12:11:20.329Z,97688.81
2023-04-28T12:14:06.053Z,97688.16
2023-04-28T12:16:44.362Z,97680.17
2023-04-28T12:19:15.425Z,97679.75
2023-04-28T12:21:44.973Z,97681.73
2023-04-28T12:24:22.118Z,97673.75
2023-04-28T12:26:51.027Z,97674.30
2023-04-28T12:29:40.272Z,97665.94
2023-04-28T12:32:10.298Z,97666.16
2023-04-28T12:34:40.948Z,97661.16
2023-04-28T12:37:09.823Z,97662.75
2023-04-28T12:39:42.313Z,97655.85
2023-04-28T12:42:11.193Z,97653.79
2023-04-28T12:44:41.012Z,97651.42
2023-04-28T12:47:13.470Z,97646.27
2023-04-28T12:49:42.888Z,97648.02
2023-04-28T12:52:12.078Z,97647.25
2023-04-28T12:54:47.410Z,97643.02
2023-04-28T12:57:17.849Z,97642.95
2023-04-28T12:59:49.607Z,97635.34
2023-04-28T13:02:19.001Z,97632.52
2023-04-28T13:04:48.223Z,97634.42
2023-04-28T13:07:17.091Z,97632.69
2023-04-28T13:09:47.737Z,97626.32
2023-04-28T13:12:16.726Z,97622.96
2023-04-28T13:14:45.513Z,97622.85
2023-04-28T13:17:14.704Z,97621.70
2023-04-28T13:19:44.192Z,97615.84
2023-04-28T13:22:13.299Z,97618.63
2023-04-28T13:24:42.099Z,97613.80
2023-04-28T13:27:11.287Z,97609.09
2023-04-28T13:29:40.709Z,97604.73
2023-04-28T13:32:09.646Z,97606.14
2023-04-28T13:34:38.572Z,97605.34
2023-04-28T13:37:07.578Z,97600.66
2023-04-28T13:39:37.480Z,97603.43
2023-04-28T13:42:07.538Z,97596.16
2023-04-28T13:44:36.394Z,97594.27
2023-04-28T13:47:09.501Z,97590.90
2023-04-28T13:49:39.857Z,97587.95
2023-04-28T14:02:58.878Z,97580.35
2023-04-28T14:05:29.807Z,97578.69
2023-04-28T14:08:02.274Z,97577.23
2023-04-28T14:10:31.582Z,97573.85
2023-04-28T14:13:00.253Z,97569.74
2023-04-28T14:15:29.663Z,97568.99
2023-04-28T14:17:58.576Z,97568.56
2023-04-28T14:20:28.363Z,97567.05
2023-04-28T14:22:58.380Z,97562.88
2023-04-28T14:25:27.577Z,97560.59
2023-04-28T14:27:56.468Z,97558.80
2023-04-28T14:30:26.276Z,97553.17
2023-04-28T14:32:55.458Z,97551.45
2023-04-28T14:35:24.669Z,97547.99
2023-04-28T14:37:54.667Z,97544.59
2023-04-28T14:40:23.958Z,97541.84
2023-04-28T14:42:53.217Z,97548.14
2023-04-28T14:45:22.398Z,97543.48
2023-04-28T14:47:51.633Z,97544.33
2023-04-28T14:50:21.088Z,97543.34
2023-04-28T14:52:50.392Z,97537.30
2023-04-28T14:55:19.688Z,97533.46
2023-04-28T14:57:48.684Z,97524.30
2023-04-28T15:00:17.984Z,97521.98
2023-04-28T15:02:47.104Z,97527.45
2023-04-28T15:05:17.398Z,97527.42
2023-04-28T15:07:47.010Z,97528.56
2023-04-28T15:10:15.903Z,97524.94
2023-04-28T15:12:44.595Z,97528.38
2023-04-28T15:15:13.793Z,97522.77
2023-04-28T15:17:42.489Z,97518.22
2023-04-28T15:20:12.102Z,97520.34
2023-04-28T15:22:41.388Z,97516.11
2023-04-28T15:25:11.093Z,97514.58
2023-04-28T15:27:40.716Z,97512.38
2023-04-28T15:30:10.914Z,97506.15
2023-04-28T15:32:39.614Z,97502.66
2023-04-28T15:35:09.305Z,97502.36
2023-04-28T15:37:38.296Z,97503.02
2023-04-28T15:40:09.097Z,97505.70
2023-04-28T15:42:39.563Z,97502.89
2023-04-28T15:45:10.722Z,97500.23
2023-04-28T15:47:41.146Z,97503.16
2023-04-28T15:50:11.376Z,97500.69
2023-04-28T15:52:41.318Z,97505.33
2023-04-28T15:55:10.578Z,97504.56
2023-04-28T15:57:39.477Z,97503.02
2023-04-28T16:00:09.478Z,97501.92
2023-04-28T16:02:39.426Z,97501.13
2023-04-28T16:05:09.264Z,97499.01
2023-04-28T16:07:39.421Z,97497.41
2023-04-28T16:10:13.320Z,97498.30
2023-04-28T16:12:42.760Z,97500.98
2023-04-28T16:15:13.157Z,97498.29
2023-04-28T16:17:42.607Z,97498.79
2023-04-28T16:20:12.407Z,97500.02
2023-04-28T16:22:41.894Z,97500.64
2023-04-28T16:25:12.018Z,97497.95
2023-04-28T16:27:41.854Z,97499.39
2023-04-28T16:30:10.697Z,97496.96
2023-04-28T16:32:40.887Z,97496.65
2023-04-28T16:35:14.892Z,97501.77
2023-04-28T16:37:44.463Z,97500.89
2023-04-28T16:40:14.084Z,97504.79
2023-04-28T16:42:45.288Z,97504.77
2023-04-28T16:45:14.302Z,97507.34
2023-04-28T16:47:44.120Z,97502.53
2023-04-28T16:50:15.073Z,97502.66
2023-04-28T16:52:43.720Z,97498.21
2023-04-28T16:55:12.918Z,97504.48
2023-04-28T16:57:43.451Z,97503.53
2023-04-28T17:00:13.621Z,97501.65
2023-04-28T17:02:42.358Z,97506.84
2023-04-28T17:05:11.880Z,97504.70
2023-04-28T17:07:41.163Z,97505.66
2023-04-28T17:10:11.019Z,97509.09
2023-04-28T17:12:39.986Z,97504.98
2023-04-28T17:15:09.817Z,97510.02
2023-04-28T17:17:41.079Z,97507.45
2023-04-28T17:20:11.100Z,97506.48
2023-04-28T17:22:39.724Z,97502.02
2023-04-28T17:25:09.363Z,97498.05
2023-04-28T17:27:38.320Z,97497.02
2023-04-28T17:30:13.672Z,97496.68
2023-04-28T17:32:42.373Z,97503.96
2023-04-28T17:35:11.336Z,97504.66
2023-04-28T17:37:40.141Z,97505.38
2023-04-28T17:40:10.964Z,97503.66
2023-04-28T17:42:39.651Z,97505.60
2023-04-28T17:45:09.467Z,97510.91
2023-04-28T17:47:38.188Z,97512.41
2023-04-28T17:50:08.071Z,97510.89
2023-04-28T17:52:36.856Z,97514.73
2023-04-28T17:55:06.546Z,97513.52
2023-04-28T17:57:35.346Z,97513.98
2023-04-28T18:00:05.429Z,97516.34
2023-04-28T18:02:41.270Z,97513.98
2023-04-28T18:05:10.354Z,97516.05
2023-04-28T18:07:39.917Z,97511.83
2023-04-28T18:10:09.024Z,97512.66
2023-04-28T18:12:37.697Z,97514.23
2023-04-28T18:15:08.257Z,97518.03
2023-04-28T18:17:37.032Z,97518.67
2023-04-28T18:20:06.621Z,97508.09
2023-04-28T18:22:35.319Z,97511.16
2023-04-28T18:25:05.474Z,97512.86
2023-04-28T18:27:34.110Z,97512.83
2023-04-28T18:30:04.853Z,97515.58
2023-04-28T18:32:34.419Z,97511.84
2023-04-28T18:35:03.569Z,97510.75
2023-04-28T18:37:32.342Z,97513.55
2023-04-28T18:40:01.228Z,97515.16
2023-04-28T18:42:31.753Z,97516.12
2023-04-28T18:45:00.542Z,97517.00
2023-04-28T18:47:29.501Z,97517.06
2023-04-28T18:50:00.194Z,97514.23
2023-04-28T18:52:29.057Z,97511.77
2023-04-28T18:54:57.746Z,97512.09
2023-04-28T18:57:26.433Z,97514.54
2023-04-28T18:59:55.218Z,97516.39
2023-04-28T19:02:24.775Z,97513.15
2023-04-28T19:04:54.136Z,97510.41
2023-04-28T19:07:23.114Z,97509.52
2023-04-28T19:09:52.072Z,97507.45
2023-04-28T19:12:21.205Z,97505.05
2023-04-28T19:14:50.007Z,97507.25
2023-04-28T19:17:18.783Z,97511.95
2023-04-28T19:19:47.701Z,97513.77
2023-04-28T19:22:35.643Z,97509.88
2023-04-28T19:25:05.530Z,97508.58
2023-04-28T19:27:37.216Z,97508.73
2023-04-28T19:30:08.096Z,97513.18
2023-04-28T19:32:37.040Z,97510.69
2023-04-28T19:35:07.445Z,97512.39
2023-04-28T19:37:36.527Z,97509.48
2023-04-28T19:40:06.238Z,97512.59
2023-04-28T19:42:35.442Z,97509.88
2023-04-28T19:45:04.455Z,97510.02
2023-04-28T19:47:34.996Z,97508.77
2023-04-28T19:50:05.253Z,97504.46
2023-04-28T19:52:33.966Z,97508.87
2023-04-28T19:55:02.781Z,97506.92
2023-04-28T19:57:31.748Z,97505.61
2023-04-28T20:00:01.063Z,97505.56
2023-04-28T20:02:29.846Z,97505.80
2023-04-28T20:04:58.930Z,97501.14
2023-04-28T20:07:28.063Z,97498.75
2023-04-28T20:09:58.077Z,97501.16
2023-04-28T20:12:26.745Z,97501.52
2023-04-28T20:14:56.135Z,97498.27
2023-04-28T20:17:24.951Z,97496.63
2023-04-28T20:19:53.667Z,97493.37
2023-04-28T20:22:22.908Z,97492.05
2023-04-28T20:24:51.819Z,97489.88
2023-04-28T20:27:20.583Z,97488.89
2023-04-28T20:29:49.803Z,97487.23
2023-04-28T20:32:18.978Z,97488.58
2023-04-28T20:34:48.184Z,97481.41
2023-04-28T20:37:17.176Z,97478.05
2023-04-28T20:39:46.060Z,97479.22
2023-04-28T20:42:15.260Z,97481.11
2023-04-28T20:44:44.763Z,97478.76
2023-04-28T20:47:14.211Z,97476.46
2023-04-28T20:49:42.849Z,97480.55
2023-04-28T20:52:13.797Z,97477.57
2023-04-28T20:54:47.088Z,97478.79
2023-04-28T20:57:16.609Z,97478.80
2023-04-28T20:59:47.219Z,97483.79
2023-04-28T21:02:16.405Z,97485.14
2023-04-28T21:04:45.312Z,97482.16
2023-04-28T21:07:14.074Z,97484.77
2023-04-28T21:09:43.395Z,97483.67
2023-04-28T21:12:12.383Z,97485.30
2023-04-28T21:14:41.409Z,97487.96
2023-04-28T21:17:10.162Z,97493.55
2023-04-28T21:19:39.153Z,97494.85
2023-04-28T21:22:08.260Z,97492.14
2023-04-28T21:24:36.950Z,97495.81
2023-04-28T21:27:06.240Z,97497.98
2023-04-28T21:29:35.572Z,97499.28
2023-04-28T21:32:04.521Z,97498.65
2023-04-28T21:34:33.738Z,97495.23
2023-04-28T21:37:02.834Z,97501.69
2023-04-28T21:39:32.253Z,97504.00
2023-04-28T21:42:02.074Z,97507.69
2023-04-28T21:44:31.143Z,97508.12
2023-04-28T21:47:00.331Z,97508.76
2023-04-28T21:49:30.820Z,97511.57
2023-04-28T21:52:00.756Z,97512.20
2023-04-28T21:54:29.571Z,97511.42
2023-04-28T21:56:59.500Z,97509.04
2023-04-28T21:59:29.053Z,97511.48
2023-04-28T22:01:59.371Z,97513.06
2023-04-28T22:04:30.525Z,97506.53
2023-04-28T22:07:00.465Z,97501.63
2023-04-28T22:09:29.633Z,97502.09
2023-04-28T22:11:59.362Z,97498.05
2023-04-28T22:14:40.499Z,97494.36
2023-04-28T22:17:10.096Z,97494.66
2023-04-28T22:19:39.047Z,97496.64
2023-04-28T22:22:08.890Z,97495.98
2023-04-28T22:24:38.073Z,97496.40
2023-04-28T22:27:07.787Z,97493.13
2023-04-28T22:29:36.676Z,97489.18
2023-04-28T22:32:08.940Z,97490.94
2023-04-28T22:34:38.967Z,97490.85
2023-04-28T22:37:07.833Z,97488.38
2023-04-28T22:39:37.353Z,97485.22
2023-04-28T22:42:07.240Z,97481.25
2023-04-28T22:44:38.058Z,97479.38
2023-04-28T22:47:07.293Z,97479.58
2023-04-28T22:49:37.111Z,97476.80
2023-04-28T22:52:07.735Z,97471.62
2023-04-28T22:54:39.289Z,97469.73
2023-04-28T22:57:09.105Z,97471.11
2023-04-28T22:59:38.518Z,97467.58
2023-04-28T23:02:09.273Z,97467.33
2023-04-28T23:04:39.893Z,97462.51
2023-04-28T23:07:09.473Z,97462.84
2023-04-28T23:09:39.192Z,97460.67
2023-04-28T23:12:08.694Z,97455.95
2023-04-28T23:14:37.581Z,97454.38
2023-04-28T23:17:07.093Z,97450.02
2023-04-28T23:19:39.814Z,97447.73
2023-04-28T23:22:09.163Z,97449.95
2023-04-28T23:24:45.200Z,97448.27
2023-04-28T23:27:20.769Z,97444.75
2023-04-28T23:29:54.544Z,97445.48
2023-04-28T23:32:23.764Z,97447.19
2023-04-28T23:34:54.420Z,97446.01
2023-04-28T23:37:24.616Z,97442.34
2023-04-28T23:39:55.108Z,97442.86
2023-04-28T23:42:25.944Z,97444.67
2023-04-28T23:44:56.661Z,97447.90
2023-04-28T23:47:27.355Z,97446.91
2023-04-28T23:49:56.770Z,97448.28
2023-04-28T23:52:26.787Z,97446.49
2023-04-28T23:54:56.606Z,97445.38
2023-04-28T23:57:26.915Z,97445.15
2023-04-28T23:59:56.438Z,97443.38
